Time;durP1;ratioP1;P1;durP2;ratioP2;P2;SDS_P1;SDS_P2;PMS_P1;PMS_P2;Temp;Humidity;BMP_temperature;BMP_pressure;BME280_temperature;BME280_humidity;BME280_pressure;Samples;Min_cycle;Max_cycle;Signal;HPM_P1;HPM_P2
2021/07/27 00:05:00;;;;;;;32.22;11.13;;;17.60;99.90;;;;;;20855508;28;20075;-49
2021/07/27 00:15:01;;;;;;;31.55;9.50;;;17.50;99.90;;;;;;20857643;28;20123;-49
2021/07/27 00:25:03;;;;;;;19.70;8.02;;;17.60;99.90;;;;;;20858507;28;20111;-49
2021/07/27 00:35:05;;;;;;;20.45;6.95;;;17.70;99.90;;;;;;20834561;28;20052;-49
2021/07/27 00:45:06;;;;;;;20.40;7.90;;;17.60;99.90;;;;;;20856167;28;20087;-49
2021/07/27 00:55:09;;;;;;;15.13;5.72;;;17.60;99.90;;;;;;20856707;28;20053;-49
2021/07/27 01:05:11;;;;;;;19.80;6.55;;;17.50;99.90;;;;;;20840181;28;20648;-49
2021/07/27 01:15:13;;;;;;;16.65;5.72;;;17.60;99.90;;;;;;20857051;28;20048;-49
2021/07/27 01:45:55;;;;;;;26.95;6.05;;;17.30;99.90;;;;;;20854051;28;20480;-49
2021/07/27 01:55:56;;;;;;;15.25;6.38;;;17.30;99.90;;;;;;20848344;28;20049;-49
2021/07/27 02:05:58;;;;;;;16.58;6.28;;;17.20;99.90;;;;;;20853763;28;20055;-49
2021/07/27 02:16:04;;;;;;;19.30;6.53;;;17.10;99.90;;;;;;20854003;28;20053;-49
2021/07/27 02:26:05;;;;;;;14.68;6.05;;;17.10;99.90;;;;;;20848222;28;20033;-49
2021/07/27 02:36:06;;;;;;;20.23;8.65;;;17.00;99.90;;;;;;20852734;28;20045;-49
2021/07/27 02:46:07;;;;;;;24.42;8.95;;;17.00;99.90;;;;;;20848536;28;20202;-49
2021/07/27 02:56:08;;;;;;;20.13;7.05;;;17.00;99.90;;;;;;20846091;28;20065;-49
2021/07/27 03:06:12;;;;;;;29.77;9.57;;;16.90;99.90;;;;;;20849443;28;20119;-49
2021/07/27 03:16:15;;;;;;;26.35;9.50;;;16.90;99.90;;;;;;20849995;28;20199;-49
2021/07/27 03:26:18;;;;;;;29.80;9.23;;;16.90;99.90;;;;;;20845570;28;20068;-49
2021/07/27 03:36:19;;;;;;;29.08;11.20;;;16.80;99.90;;;;;;20851016;28;20037;-51
2021/07/27 03:46:20;;;;;;;34.78;11.88;;;17.00;99.90;;;;;;20862880;28;20052;-51
2021/07/27 03:56:21;;;;;;;30.33;10.30;;;16.90;99.90;;;;;;20860999;28;20063;-48
2021/07/27 04:06:22;;;;;;;32.03;10.60;;;16.80;99.90;;;;;;20857462;28;20110;-48
2021/07/27 04:16:24;;;;;;;34.10;10.75;;;16.80;99.90;;;;;;20857936;28;20052;-51
2021/07/27 04:26:27;;;;;;;32.45;10.80;;;17.00;99.90;;;;;;20857799;28;20055;-51
2021/07/27 04:36:28;;;;;;;26.90;9.63;;;17.00;99.90;;;;;;20858611;28;20049;-51
2021/07/27 04:46:29;;;;;;;26.40;9.45;;;16.90;99.90;;;;;;20858477;28;20245;-51
2021/07/27 04:56:34;;;;;;;27.02;9.48;;;17.00;99.90;;;;;;20858025;28;20151;-51
2021/07/27 05:06:37;;;;;;;22.65;8.57;;;17.00;99.90;;;;;;20858167;28;20051;-51
2021/07/27 05:16:39;;;;;;;20.77;8.65;;;17.10;99.90;;;;;;20855315;28;20059;-51
2021/07/27 05:26:40;;;;;;;31.40;8.30;;;17.10;99.90;;;;;;20855097;28;20120;-51
2021/07/27 05:36:41;;;;;;;18.55;7.55;;;17.10;99.90;;;;;;20854984;28;20161;-49
2021/07/27 05:46:42;;;;;;;14.10;6.20;;;17.00;99.90;;;;;;20851662;28;20083;-51
2021/07/27 05:56:43;;;;;;;20.23;6.65;;;17.20;99.90;;;;;;20867028;28;20045;-51
2021/07/27 06:06:44;;;;;;;15.52;6.18;;;17.20;99.90;;;;;;20853697;28;20045;-51
2021/07/27 06:16:45;;;;;;;25.83;6.00;;;17.30;99.90;;;;;;20863965;28;20075;-51
2021/07/27 06:26:46;;;;;;;14.45;5.65;;;17.20;99.90;;;;;;20867186;28;20055;-51
2021/07/27 06:36:48;;;;;;;12.63;5.20;;;17.40;99.90;;;;;;20870565;28;20273;-51
2021/07/27 06:46:49;;;;;;;13.77;5.57;;;17.60;99.90;;;;;;20862756;28;20114;-51
2021/07/27 06:56:54;;;;;;;9.70;4.65;;;17.60;99.90;;;;;;20864006;28;20072;-51
2021/07/27 07:06:55;;;;;;;16.58;5.53;;;17.60;99.90;;;;;;20859657;28;20060;-49
2021/07/27 07:16:56;;;;;;;14.57;5.90;;;17.70;99.90;;;;;;20856674;28;20072;-49
2021/07/27 07:26:58;;;;;;;15.35;5.75;;;17.90;99.90;;;;;;20866193;28;20083;-49
2021/07/27 07:37:00;;;;;;;13.00;6.03;;;18.10;99.90;;;;;;20877796;28;20060;-49
2021/07/27 07:47:02;;;;;;;15.38;6.43;;;18.00;99.90;;;;;;20875773;28;20045;-49
2021/07/27 07:57:04;;;;;;;14.52;6.55;;;18.50;99.90;;;;;;20874828;28;20215;-49
2021/07/27 08:07:06;;;;;;;12.23;5.68;;;18.70;99.90;;;;;;20875545;28;20029;-49
2021/07/27 08:17:07;;;;;;;15.65;5.40;;;18.80;99.90;;;;;;20871812;28;20049;-49
2021/07/27 08:27:08;;;;;;;10.18;4.95;;;19.00;99.90;;;;;;20870774;28;20674;-49
2021/07/27 08:37:10;;;;;;;15.73;6.00;;;19.00;99.90;;;;;;20872420;28;20219;-49
2021/07/27 08:47:13;;;;;;;13.07;5.75;;;18.90;99.90;;;;;;20870310;28;20128;-49
2021/07/27 08:57:15;;;;;;;11.95;5.82;;;19.00;99.90;;;;;;20871026;28;20071;-49
2021/07/27 09:07:24;;;;;;;12.57;5.47;;;18.90;99.90;;;;;;20869937;28;20041;-49
2021/07/27 09:17:26;;;;;;;12.82;5.22;;;19.00;99.90;;;;;;20869877;28;20155;-49
2021/07/27 09:27:27;;;;;;;10.50;5.13;;;18.90;99.90;;;;;;20868466;28;20047;-49
2021/07/27 09:37:28;;;;;;;10.43;5.03;;;19.20;99.90;;;;;;20867495;28;20051;-49
2021/07/27 09:47:30;;;;;;;12.60;5.43;;;19.20;99.90;;;;;;20866771;28;20045;-49
2021/07/27 09:57:32;;;;;;;15.43;5.75;;;19.10;99.90;;;;;;20870149;28;20041;-49
2021/07/27 10:07:33;;;;;;;8.73;4.18;;;19.20;99.90;;;;;;20870891;28;20049;-49
2021/07/27 10:17:46;;;;;;;13.43;4.57;;;19.30;99.90;;;;;;20865491;28;20359;-49
2021/07/27 10:27:55;;;;;;;8.05;4.50;;;19.30;99.90;;;;;;20868187;28;20048;-49
2021/07/27 10:38:14;;;;;;;8.85;3.47;;;19.30;99.90;;;;;;20868207;28;20049;-49
2021/07/27 10:48:16;;;;;;;7.57;3.40;;;19.00;99.90;;;;;;20869056;28;20079;-49
2021/07/27 10:58:18;;;;;;;7.15;3.35;;;18.90;99.90;;;;;;20860285;28;20135;-49
2021/07/27 11:08:23;;;;;;;6.72;3.22;;;19.30;99.90;;;;;;20860083;28;20064;-49
2021/07/27 11:18:24;;;;;;;7.32;2.38;;;19.60;99.90;;;;;;20861438;28;20191;-49
2021/07/27 11:28:36;;;;;;;5.15;2.38;;;19.70;99.90;;;;;;20860813;28;20116;-49
2021/07/27 11:38:37;;;;;;;3.97;2.03;;;19.80;99.90;;;;;;20861349;28;20123;-49
2021/07/27 11:48:43;;;;;;;3.45;1.33;;;19.60;99.90;;;;;;20860924;28;20210;-49
2021/07/27 11:58:49;;;;;;;3.57;1.27;;;19.50;99.90;;;;;;20861558;28;20358;-49
2021/07/27 12:08:50;;;;;;;3.10;1.42;;;19.80;99.90;;;;;;20873298;28;20126;-49
2021/07/27 12:18:51;;;;;;;3.65;1.33;;;21.00;99.90;;;;;;20875280;28;20128;-49
2021/07/27 12:28:55;;;;;;;4.13;1.80;;;21.20;99.90;;;;;;20870445;28;20095;-49
2021/07/27 12:38:56;;;;;;;3.72;1.15;;;21.70;99.90;;;;;;20871554;28;20138;-49
2021/07/27 12:48:59;;;;;;;2.60;1.30;;;22.20;99.90;;;;;;20872534;28;20123;-49
2021/07/27 12:59:01;;;;;;;2.83;1.48;;;21.90;99.90;;;;;;20870086;28;20059;-49
2021/07/27 13:09:03;;;;;;;4.90;1.83;;;21.80;99.90;;;;;;20852359;28;20094;-49
2021/07/27 13:19:04;;;;;;;3.35;1.30;;;21.40;99.90;;;;;;20870065;28;20044;-49
2021/07/27 13:29:05;;;;;;;3.03;1.58;;;21.20;99.90;;;;;;20867486;28;20045;-49
2021/07/27 13:39:07;;;;;;;2.67;1.27;;;21.40;99.90;;;;;;20865435;28;20045;-49
2021/07/27 13:49:08;;;;;;;1.35;0.68;;;22.00;99.90;;;;;;20866193;28;20040;-49
2021/07/27 13:59:10;;;;;;;2.28;1.02;;;22.70;99.90;;;;;;20851445;28;20044;-49
2021/07/27 14:09:12;;;;;;;3.70;1.13;;;23.30;99.90;;;;;;20864784;28;20063;-49
2021/07/27 14:19:13;;;;;;;3.58;1.48;;;23.30;99.90;;;;;;20849976;28;20083;-49
2021/07/27 14:29:14;;;;;;;5.05;1.90;;;22.80;99.90;;;;;;20865632;28;20040;-49
2021/07/27 14:39:16;;;;;;;4.32;1.33;;;22.60;99.90;;;;;;20863486;28;20111;-49
2021/07/27 14:49:18;;;;;;;4.30;1.95;;;22.80;99.90;;;;;;20863349;28;20045;-49
2021/07/27 14:59:19;;;;;;;6.97;2.25;;;22.40;99.90;;;;;;20861684;28;20075;-49
2021/07/27 15:09:20;;;;;;;7.72;2.53;;;22.20;99.90;;;;;;20862557;28;20451;-49
2021/07/27 15:19:21;;;;;;;8.73;3.75;;;22.10;99.90;;;;;;20862617;28;20199;-49
2021/07/27 15:29:22;;;;;;;9.38;4.00;;;21.80;99.90;;;;;;20861559;28;20041;-49
2021/07/27 15:39:23;;;;;;;9.25;3.95;;;20.60;99.90;;;;;;20875677;28;20244;-49
2021/07/27 15:49:25;;;;;;;7.95;3.17;;;19.70;99.90;;;;;;20881837;28;20040;-48
2021/07/27 15:59:27;;;;;;;3.20;1.30;;;19.50;99.90;;;;;;20878197;28;20135;-51
2021/07/27 16:09:28;;;;;;;4.10;1.63;;;18.30;99.90;;;;;;20881140;28;20114;-48
2021/07/27 16:19:29;;;;;;;4.45;1.58;;;17.90;99.90;;;;;;20869634;28;20052;-48
2021/07/27 16:29:30;;;;;;;4.18;1.60;;;18.00;99.90;;;;;;20867377;28;20480;-49
2021/07/27 16:39:34;;;;;;;2.75;1.00;;;18.10;99.90;;;;;;20872574;28;20219;-49
2021/07/27 16:49:39;;;;;;;2.60;1.13;;;18.20;99.90;;;;;;20870078;28;20146;-49
2021/07/27 16:59:40;;;;;;;2.88;0.95;;;18.40;99.90;;;;;;20865246;28;20124;-49
2021/07/27 17:09:41;;;;;;;4.05;1.67;;;18.60;99.90;;;;;;20865280;28;20063;-50
2021/07/27 17:19:42;;;;;;;4.93;1.33;;;18.50;99.90;;;;;;20854887;28;20590;-50
2021/07/27 17:29:43;;;;;;;2.28;0.90;;;18.70;99.90;;;;;;20851644;28;20037;-50
2021/07/27 17:39:44;;;;;;;3.17;1.55;;;18.80;99.90;;;;;;20862106;28;20135;-48
2021/07/27 17:49:46;;;;;;;8.77;1.90;;;18.80;99.90;;;;;;20838283;28;20103;-50
2021/07/27 17:59:47;;;;;;;5.53;2.05;;;18.90;99.90;;;;;;20849445;28;20442;-50
2021/07/27 18:09:48;;;;;;;5.38;1.92;;;18.40;99.90;;;;;;20858860;28;20091;-50
2021/07/27 18:19:50;;;;;;;3.17;1.35;;;18.00;99.90;;;;;;20853037;28;20060;-50
2021/07/27 18:29:51;;;;;;;3.72;1.67;;;17.80;99.90;;;;;;20852832;28;20435;-50
2021/07/27 18:39:54;;;;;;;3.90;1.40;;;17.80;99.90;;;;;;20839026;28;20052;-50
2021/07/27 18:49:55;;;;;;;4.82;1.67;;;17.60;99.90;;;;;;20846384;28;20440;-50
2021/07/27 18:59:57;;;;;;;4.32;1.90;;;17.60;99.90;;;;;;20839323;28;20068;-50
2021/07/27 19:09:58;;;;;;;2.63;1.08;;;17.60;99.90;;;;;;20854835;28;20033;-49
2021/07/27 19:20:00;;;;;;;2.35;1.08;;;17.60;99.90;;;;;;20860545;28;20056;-50
2021/07/27 19:30:01;;;;;;;3.72;1.25;;;17.50;99.90;;;;;;20871001;28;20801;-50
2021/07/27 19:40:03;;;;;;;2.17;1.20;;;17.60;99.90;;;;;;20872713;28;20380;-50
2021/07/27 19:50:05;;;;;;;4.72;0.98;;;17.40;99.90;;;;;;20863741;28;20482;-49
2021/07/27 20:00:07;;;;;;;2.55;1.45;;;17.50;99.90;;;;;;20846651;28;20416;-50
2021/07/27 20:10:10;;;;;;;4.90;1.33;;;17.40;99.90;;;;;;20867548;28;20064;-50
2021/07/27 20:20:12;;;;;;;5.15;1.45;;;17.40;99.90;;;;;;20863113;28;20437;-50
2021/07/27 20:30:13;;;;;;;5.78;2.20;;;17.40;99.90;;;;;;20859819;28;20999;-49
2021/07/27 20:40:14;;;;;;;6.38;2.35;;;17.30;99.90;;;;;;20863747;28;20424;-49
2021/07/27 20:50:16;;;;;;;5.70;2.28;;;17.30;99.90;;;;;;20849757;28;20384;-50
2021/07/27 21:00:17;;;;;;;4.32;1.98;;;17.30;99.90;;;;;;20847292;28;20583;-49
2021/07/27 21:10:18;;;;;;;5.90;2.92;;;17.10;99.90;;;;;;20849705;28;20437;-50
2021/07/27 21:20:20;;;;;;;7.88;2.50;;;17.00;99.90;;;;;;20841438;28;20381;-50
2021/07/27 21:30:21;;;;;;;6.50;2.33;;;16.90;99.90;;;;;;20849662;28;20385;-50
2021/07/27 21:40:22;;;;;;;5.72;3.28;;;17.10;99.90;;;;;;20857525;28;20044;-50
2021/07/27 21:50:24;;;;;;;6.78;3.03;;;16.90;99.90;;;;;;20851349;28;20535;-49
2021/07/27 22:00:25;;;;;;;5.53;2.30;;;16.80;99.90;;;;;;20860499;28;20509;-49
2021/07/27 22:10:26;;;;;;;7.50;3.10;;;16.70;99.90;;;;;;20867786;28;20084;-50
2021/07/27 22:20:28;;;;;;;14.18;3.42;;;16.70;99.90;;;;;;20869923;28;20436;-50
2021/07/27 22:30:29;;;;;;;10.23;3.85;;;16.70;99.90;;;;;;20866038;28;20504;-49
2021/07/27 22:40:30;;;;;;;8.25;3.58;;;16.70;99.90;;;;;;20864655;28;20558;-50
2021/07/27 22:50:31;;;;;;;11.65;3.33;;;16.60;99.90;;;;;;20866189;28;20514;-49
2021/07/27 23:00:33;;;;;;;8.27;3.72;;;16.60;99.90;;;;;;20863099;28;20075;-49
2021/07/27 23:10:34;;;;;;;10.18;4.95;;;16.50;99.90;;;;;;20860395;28;20520;-49
2021/07/27 23:20:41;;;;;;;9.15;4.28;;;16.60;99.90;;;;;;20861736;28;20679;-49
2021/07/27 23:30:43;;;;;;;12.73;4.73;;;16.50;99.90;;;;;;20860928;28;20044;-49
2021/07/27 23:40:44;;;;;;;13.95;5.30;;;16.50;99.90;;;;;;20860975;28;20701;-50
2021/07/27 23:50:45;;;;;;;12.55;4.07;;;16.50;99.90;;;;;;20861887;28;20518;-49
